sensor_id;sensor_type;location;lat;lon;timestamp;pressure;altitude;pressure_sealevel;temperature
19644;BMP180;9970;-36.854;174.870;2022-08-01T00:00:14;102182.00;;;13.60
19644;BMP180;9970;-36.854;174.870;2022-08-01T00:02:47;102172.00;;;13.70
19644;BMP180;9970;-36.854;174.870;2022-08-01T00:05:20;102178.00;;;13.70
19644;BMP180;9970;-36.854;174.870;2022-08-01T00:07:53;102183.00;;;13.70
19644;BMP180;9970;-36.854;174.870;2022-08-01T00:10:26;102169.00;;;13.80
19644;BMP180;9970;-36.854;174.870;2022-08-01T00:13:00;102170.00;;;13.80
19644;BMP180;9970;-36.854;174.870;2022-08-01T00:15:33;102167.00;;;13.80
19644;BMP180;9970;-36.854;174.870;2022-08-01T00:18:06;102182.00;;;13.80
19644;BMP180;9970;-36.854;174.870;2022-08-01T00:20:39;102179.00;;;13.90
19644;BMP180;9970;-36.854;174.870;2022-08-01T00:23:12;102167.00;;;13.90
19644;BMP180;9970;-36.854;174.870;2022-08-01T00:25:45;102169.00;;;13.90
19644;BMP180;9970;-36.854;174.870;2022-08-01T00:28:17;102165.00;;;13.90
19644;BMP180;9970;-36.854;174.870;2022-08-01T00:30:50;102157.00;;;13.90
19644;BMP180;9970;-36.854;174.870;2022-08-01T00:33:23;102152.00;;;13.90
19644;BMP180;9970;-36.854;174.870;2022-08-01T00:35:56;102145.00;;;13.90
19644;BMP180;9970;-36.854;174.870;2022-08-01T00:38:35;102141.00;;;13.90
19644;BMP180;9970;-36.854;174.870;2022-08-01T00:41:04;102142.00;;;13.90
19644;BMP180;9970;-36.854;174.870;2022-08-01T00:43:37;102137.00;;;13.90
19644;BMP180;9970;-36.854;174.870;2022-08-01T00:46:10;102127.00;;;13.90
19644;BMP180;9970;-36.854;174.870;2022-08-01T00:48:42;102139.00;;;13.90
19644;BMP180;9970;-36.854;174.870;2022-08-01T00:51:15;102126.00;;;13.90
19644;BMP180;9970;-36.854;174.870;2022-08-01T00:53:50;102130.00;;;13.90
19644;BMP180;9970;-36.854;174.870;2022-08-01T00:56:25;102125.00;;;13.90
19644;BMP180;9970;-36.854;174.870;2022-08-01T00:58:59;102132.00;;;14.00
19644;BMP180;9970;-36.854;174.870;2022-08-01T01:01:32;102130.00;;;14.00
19644;BMP180;9970;-36.854;174.870;2022-08-01T01:04:07;102128.00;;;14.00
19644;BMP180;9970;-36.854;174.870;2022-08-01T01:09:49;102122.00;;;14.00
19644;BMP180;9970;-36.854;174.870;2022-08-01T01:12:27;102130.00;;;14.00
19644;BMP180;9970;-36.854;174.870;2022-08-01T01:18:09;102138.00;;;14.00
19644;BMP180;9970;-36.854;174.870;2022-08-01T01:20:43;102131.00;;;14.00
19644;BMP180;9970;-36.854;174.870;2022-08-01T01:29:15;102118.00;;;14.00
19644;BMP180;9970;-36.854;174.870;2022-08-01T01:31:53;102127.00;;;14.00
19644;BMP180;9970;-36.854;174.870;2022-08-01T01:34:26;102128.00;;;13.90
19644;BMP180;9970;-36.854;174.870;2022-08-01T01:37:01;102118.00;;;14.00
19644;BMP180;9970;-36.854;174.870;2022-08-01T01:39:35;102114.00;;;14.00
19644;BMP180;9970;-36.854;174.870;2022-08-01T01:42:10;102112.00;;;14.00
19644;BMP180;9970;-36.854;174.870;2022-08-01T01:44:45;102113.00;;;14.00
19644;BMP180;9970;-36.854;174.870;2022-08-01T01:47:18;102117.00;;;14.00
19644;BMP180;9970;-36.854;174.870;2022-08-01T01:49:53;102112.00;;;14.00
19644;BMP180;9970;-36.854;174.870;2022-08-01T01:52:27;102101.00;;;14.00
19644;BMP180;9970;-36.854;174.870;2022-08-01T01:55:04;102104.00;;;14.10
19644;BMP180;9970;-36.854;174.870;2022-08-01T01:57:41;102108.00;;;14.10
19644;BMP180;9970;-36.854;174.870;2022-08-01T02:00:15;102100.00;;;14.10
19644;BMP180;9970;-36.854;174.870;2022-08-01T02:02:53;102102.00;;;14.10
19644;BMP180;9970;-36.854;174.870;2022-08-01T02:05:32;102113.00;;;14.20
19644;BMP180;9970;-36.854;174.870;2022-08-01T02:08:10;102106.00;;;14.20
19644;BMP180;9970;-36.854;174.870;2022-08-01T02:10:44;102103.00;;;14.10
19644;BMP180;9970;-36.854;174.870;2022-08-01T02:13:36;102103.00;;;14.10
19644;BMP180;9970;-36.854;174.870;2022-08-01T02:16:10;102105.00;;;14.10
19644;BMP180;9970;-36.854;174.870;2022-08-01T02:18:43;102104.00;;;14.20
19644;BMP180;9970;-36.854;174.870;2022-08-01T02:21:18;102110.00;;;14.20
19644;BMP180;9970;-36.854;174.870;2022-08-01T02:23:51;102105.00;;;14.20
19644;BMP180;9970;-36.854;174.870;2022-08-01T02:26:25;102107.00;;;14.20
19644;BMP180;9970;-36.854;174.870;2022-08-01T02:29:05;102114.00;;;14.20
19644;BMP180;9970;-36.854;174.870;2022-08-01T02:31:38;102119.00;;;14.20
19644;BMP180;9970;-36.854;174.870;2022-08-01T02:34:13;102121.00;;;14.20
19644;BMP180;9970;-36.854;174.870;2022-08-01T02:36:47;102130.00;;;14.20
19644;BMP180;9970;-36.854;174.870;2022-08-01T02:39:21;102128.00;;;14.20
19644;BMP180;9970;-36.854;174.870;2022-08-01T02:41:57;102136.00;;;14.30
19644;BMP180;9970;-36.854;174.870;2022-08-01T02:44:31;102138.00;;;14.30
19644;BMP180;9970;-36.854;174.870;2022-08-01T02:47:04;102132.00;;;14.30
19644;BMP180;9970;-36.854;174.870;2022-08-01T02:49:45;102155.00;;;14.30
19644;BMP180;9970;-36.854;174.870;2022-08-01T02:52:21;102144.00;;;14.30
19644;BMP180;9970;-36.854;174.870;2022-08-01T02:54:56;102155.00;;;14.30
19644;BMP180;9970;-36.854;174.870;2022-08-01T02:57:29;102148.00;;;14.30
19644;BMP180;9970;-36.854;174.870;2022-08-01T03:00:09;102151.00;;;14.30
19644;BMP180;9970;-36.854;174.870;2022-08-01T03:02:44;102156.00;;;14.30
19644;BMP180;9970;-36.854;174.870;2022-08-01T03:05:24;102160.00;;;14.30
19644;BMP180;9970;-36.854;174.870;2022-08-01T03:07:58;102169.00;;;14.20
19644;BMP180;9970;-36.854;174.870;2022-08-01T03:10:35;102159.00;;;14.20
19644;BMP180;9970;-36.854;174.870;2022-08-01T03:13:09;102166.00;;;14.20
19644;BMP180;9970;-36.854;174.870;2022-08-01T03:15:44;102164.00;;;14.20
19644;BMP180;9970;-36.854;174.870;2022-08-01T03:18:18;102163.00;;;14.20
19644;BMP180;9970;-36.854;174.870;2022-08-01T03:20:54;102164.00;;;14.20
19644;BMP180;9970;-36.854;174.870;2022-08-01T03:23:29;102161.00;;;14.10
19644;BMP180;9970;-36.854;174.870;2022-08-01T03:26:04;102156.00;;;14.10
19644;BMP180;9970;-36.854;174.870;2022-08-01T03:28:38;102163.00;;;14.10
19644;BMP180;9970;-36.854;174.870;2022-08-01T03:31:12;102155.00;;;14.10
19644;BMP180;9970;-36.854;174.870;2022-08-01T03:33:49;102157.00;;;14.10
19644;BMP180;9970;-36.854;174.870;2022-08-01T03:36:25;102158.00;;;14.10
19644;BMP180;9970;-36.854;174.870;2022-08-01T03:39:00;102163.00;;;14.00
19644;BMP180;9970;-36.854;174.870;2022-08-01T03:41:35;102156.00;;;14.00
19644;BMP180;9970;-36.854;174.870;2022-08-01T03:44:12;102155.00;;;14.00
19644;BMP180;9970;-36.854;174.870;2022-08-01T03:46:43;102162.00;;;14.00
19644;BMP180;9970;-36.854;174.870;2022-08-01T03:49:18;102150.00;;;14.00
19644;BMP180;9970;-36.854;174.870;2022-08-01T03:51:52;102154.00;;;13.90
19644;BMP180;9970;-36.854;174.870;2022-08-01T03:54:27;102159.00;;;13.90
19644;BMP180;9970;-36.854;174.870;2022-08-01T03:57:01;102160.00;;;13.90
19644;BMP180;9970;-36.854;174.870;2022-08-01T03:59:35;102172.00;;;13.90
19644;BMP180;9970;-36.854;174.870;2022-08-01T04:02:09;102170.00;;;13.90
19644;BMP180;9970;-36.854;174.870;2022-08-01T04:04:42;102169.00;;;13.90
19644;BMP180;9970;-36.854;174.870;2022-08-01T04:07:26;102176.00;;;13.90
19644;BMP180;9970;-36.854;174.870;2022-08-01T04:09:59;102175.00;;;13.80
19644;BMP180;9970;-36.854;174.870;2022-08-01T04:12:32;102178.00;;;13.80
19644;BMP180;9970;-36.854;174.870;2022-08-01T04:15:05;102177.00;;;13.80
19644;BMP180;9970;-36.854;174.870;2022-08-01T04:17:38;102176.00;;;13.80
19644;BMP180;9970;-36.854;174.870;2022-08-01T04:20:11;102178.00;;;13.80
19644;BMP180;9970;-36.854;174.870;2022-08-01T04:22:44;102173.00;;;13.80
19644;BMP180;9970;-36.854;174.870;2022-08-01T04:25:31;102189.00;;;13.80
19644;BMP180;9970;-36.854;174.870;2022-08-01T04:28:07;102186.00;;;13.80
19644;BMP180;9970;-36.854;174.870;2022-08-01T04:30:42;102188.00;;;13.70
19644;BMP180;9970;-36.854;174.870;2022-08-01T04:33:17;102194.00;;;13.70
19644;BMP180;9970;-36.854;174.870;2022-08-01T04:35:50;102194.00;;;13.70
19644;BMP180;9970;-36.854;174.870;2022-08-01T04:38:27;102191.00;;;13.70
19644;BMP180;9970;-36.854;174.870;2022-08-01T04:41:02;102200.00;;;13.70
19644;BMP180;9970;-36.854;174.870;2022-08-01T04:43:39;102202.00;;;13.70
19644;BMP180;9970;-36.854;174.870;2022-08-01T04:46:16;102207.00;;;13.60
19644;BMP180;9970;-36.854;174.870;2022-08-01T04:48:50;102198.00;;;13.60
19644;BMP180;9970;-36.854;174.870;2022-08-01T04:51:23;102198.00;;;13.60
19644;BMP180;9970;-36.854;174.870;2022-08-01T04:53:56;102211.00;;;13.60
19644;BMP180;9970;-36.854;174.870;2022-08-01T04:56:29;102213.00;;;13.60
19644;BMP180;9970;-36.854;174.870;2022-08-01T04:59:03;102221.00;;;13.60
19644;BMP180;9970;-36.854;174.870;2022-08-01T05:01:59;102222.00;;;13.50
19644;BMP180;9970;-36.854;174.870;2022-08-01T05:04:33;102215.00;;;13.50
19644;BMP180;9970;-36.854;174.870;2022-08-01T05:07:11;102211.00;;;13.50
19644;BMP180;9970;-36.854;174.870;2022-08-01T05:09:44;102209.00;;;13.50
19644;BMP180;9970;-36.854;174.870;2022-08-01T05:12:17;102204.00;;;13.50
19644;BMP180;9970;-36.854;174.870;2022-08-01T05:14:50;102218.00;;;13.50
19644;BMP180;9970;-36.854;174.870;2022-08-01T05:17:23;102221.00;;;13.50
19644;BMP180;9970;-36.854;174.870;2022-08-01T05:19:56;102222.00;;;13.50
19644;BMP180;9970;-36.854;174.870;2022-08-01T05:22:29;102214.00;;;13.40
19644;BMP180;9970;-36.854;174.870;2022-08-01T05:25:02;102228.00;;;13.40
19644;BMP180;9970;-36.854;174.870;2022-08-01T05:27:36;102228.00;;;13.40
19644;BMP180;9970;-36.854;174.870;2022-08-01T05:30:10;102227.00;;;13.40
19644;BMP180;9970;-36.854;174.870;2022-08-01T05:32:44;102243.00;;;13.40
19644;BMP180;9970;-36.854;174.870;2022-08-01T05:35:16;102228.00;;;13.40
19644;BMP180;9970;-36.854;174.870;2022-08-01T05:37:49;102242.00;;;13.30
19644;BMP180;9970;-36.854;174.870;2022-08-01T05:40:23;102249.00;;;13.30
19644;BMP180;9970;-36.854;174.870;2022-08-01T05:42:56;102251.00;;;13.30
19644;BMP180;9970;-36.854;174.870;2022-08-01T05:45:29;102251.00;;;13.30
19644;BMP180;9970;-36.854;174.870;2022-08-01T05:48:02;102248.00;;;13.30
19644;BMP180;9970;-36.854;174.870;2022-08-01T05:50:35;102258.00;;;13.30
19644;BMP180;9970;-36.854;174.870;2022-08-01T05:53:08;102260.00;;;13.30
19644;BMP180;9970;-36.854;174.870;2022-08-01T05:55:40;102262.00;;;13.30
19644;BMP180;9970;-36.854;174.870;2022-08-01T05:58:18;102265.00;;;13.20
19644;BMP180;9970;-36.854;174.870;2022-08-01T06:00:51;102267.00;;;13.20
19644;BMP180;9970;-36.854;174.870;2022-08-01T06:03:24;102278.00;;;13.20
19644;BMP180;9970;-36.854;174.870;2022-08-01T06:05:57;102280.00;;;13.20
19644;BMP180;9970;-36.854;174.870;2022-08-01T06:08:30;102289.00;;;13.20
19644;BMP180;9970;-36.854;174.870;2022-08-01T06:11:03;102280.00;;;13.20
19644;BMP180;9970;-36.854;174.870;2022-08-01T06:13:37;102295.00;;;13.20
19644;BMP180;9970;-36.854;174.870;2022-08-01T06:16:11;102293.00;;;13.10
19644;BMP180;9970;-36.854;174.870;2022-08-01T06:18:44;102287.00;;;13.10
19644;BMP180;9970;-36.854;174.870;2022-08-01T06:21:17;102299.00;;;13.10
19644;BMP180;9970;-36.854;174.870;2022-08-01T06:23:49;102299.00;;;13.10
19644;BMP180;9970;-36.854;174.870;2022-08-01T06:26:27;102297.00;;;13.10
19644;BMP180;9970;-36.854;174.870;2022-08-01T06:29:00;102303.00;;;13.10
19644;BMP180;9970;-36.854;174.870;2022-08-01T06:31:32;102299.00;;;13.00
19644;BMP180;9970;-36.854;174.870;2022-08-01T06:34:08;102307.00;;;13.00
19644;BMP180;9970;-36.854;174.870;2022-08-01T06:36:40;102301.00;;;13.00
19644;BMP180;9970;-36.854;174.870;2022-08-01T06:39:14;102310.00;;;13.00
19644;BMP180;9970;-36.854;174.870;2022-08-01T06:41:47;102313.00;;;12.90
19644;BMP180;9970;-36.854;174.870;2022-08-01T06:44:19;102312.00;;;12.90
19644;BMP180;9970;-36.854;174.870;2022-08-01T06:46:53;102309.00;;;12.90
19644;BMP180;9970;-36.854;174.870;2022-08-01T06:49:26;102326.00;;;12.80
19644;BMP180;9970;-36.854;174.870;2022-08-01T06:51:59;102330.00;;;12.80
19644;BMP180;9970;-36.854;174.870;2022-08-01T06:54:35;102332.00;;;12.80
19644;BMP180;9970;-36.854;174.870;2022-08-01T06:57:08;102331.00;;;12.80
19644;BMP180;9970;-36.854;174.870;2022-08-01T06:59:41;102329.00;;;12.80
19644;BMP180;9970;-36.854;174.870;2022-08-01T07:02:15;102322.00;;;12.70
19644;BMP180;9970;-36.854;174.870;2022-08-01T07:04:52;102335.00;;;12.70
19644;BMP180;9970;-36.854;174.870;2022-08-01T07:07:25;102331.00;;;12.70
19644;BMP180;9970;-36.854;174.870;2022-08-01T07:09:58;102336.00;;;12.70
19644;BMP180;9970;-36.854;174.870;2022-08-01T07:12:31;102339.00;;;12.70
19644;BMP180;9970;-36.854;174.870;2022-08-01T07:15:05;102346.00;;;12.60
19644;BMP180;9970;-36.854;174.870;2022-08-01T07:17:43;102346.00;;;12.60
19644;BMP180;9970;-36.854;174.870;2022-08-01T07:20:16;102345.00;;;12.60
19644;BMP180;9970;-36.854;174.870;2022-08-01T07:22:50;102344.00;;;12.60
19644;BMP180;9970;-36.854;174.870;2022-08-01T07:25:24;102355.00;;;12.60
19644;BMP180;9970;-36.854;174.870;2022-08-01T07:27:57;102366.00;;;12.60
19644;BMP180;9970;-36.854;174.870;2022-08-01T07:30:34;102352.00;;;12.60
19644;BMP180;9970;-36.854;174.870;2022-08-01T07:33:07;102366.00;;;12.50
19644;BMP180;9970;-36.854;174.870;2022-08-01T07:35:43;102364.00;;;12.50
19644;BMP180;9970;-36.854;174.870;2022-08-01T07:38:16;102368.00;;;12.50
19644;BMP180;9970;-36.854;174.870;2022-08-01T07:40:50;102385.00;;;12.50
19644;BMP180;9970;-36.854;174.870;2022-08-01T07:43:23;102384.00;;;12.40
19644;BMP180;9970;-36.854;174.870;2022-08-01T07:45:56;102389.00;;;12.40
19644;BMP180;9970;-36.854;174.870;2022-08-01T07:48:29;102399.00;;;12.40
19644;BMP180;9970;-36.854;174.870;2022-08-01T07:51:02;102386.00;;;12.30
19644;BMP180;9970;-36.854;174.870;2022-08-01T07:53:35;102389.00;;;12.30
19644;BMP180;9970;-36.854;174.870;2022-08-01T07:56:08;102393.00;;;12.30
19644;BMP180;9970;-36.854;174.870;2022-08-01T07:58:41;102399.00;;;12.30
19644;BMP180;9970;-36.854;174.870;2022-08-01T08:01:14;102393.00;;;12.30
19644;BMP180;9970;-36.854;174.870;2022-08-01T08:03:47;102396.00;;;12.30
19644;BMP180;9970;-36.854;174.870;2022-08-01T08:06:20;102405.00;;;12.20
19644;BMP180;9970;-36.854;174.870;2022-08-01T08:08:52;102399.00;;;12.20
19644;BMP180;9970;-36.854;174.870;2022-08-01T08:11:30;102405.00;;;12.20
19644;BMP180;9970;-36.854;174.870;2022-08-01T08:14:03;102400.00;;;12.20
19644;BMP180;9970;-36.854;174.870;2022-08-01T08:16:35;102401.00;;;12.20
19644;BMP180;9970;-36.854;174.870;2022-08-01T08:19:09;102396.00;;;12.20
19644;BMP180;9970;-36.854;174.870;2022-08-01T08:21:42;102408.00;;;12.10
19644;BMP180;9970;-36.854;174.870;2022-08-01T08:24:15;102410.00;;;12.10
19644;BMP180;9970;-36.854;174.870;2022-08-01T08:26:54;102414.00;;;12.10
19644;BMP180;9970;-36.854;174.870;2022-08-01T08:29:28;102411.00;;;12.10
19644;BMP180;9970;-36.854;174.870;2022-08-01T08:32:02;102409.00;;;12.10
19644;BMP180;9970;-36.854;174.870;2022-08-01T08:34:35;102409.00;;;12.10
19644;BMP180;9970;-36.854;174.870;2022-08-01T08:37:09;102398.00;;;12.00
19644;BMP180;9970;-36.854;174.870;2022-08-01T08:39:42;102404.00;;;12.00
19644;BMP180;9970;-36.854;174.870;2022-08-01T08:42:15;102398.00;;;12.00
19644;BMP180;9970;-36.854;174.870;2022-08-01T08:44:48;102402.00;;;12.00
19644;BMP180;9970;-36.854;174.870;2022-08-01T08:47:22;102391.00;;;11.90
19644;BMP180;9970;-36.854;174.870;2022-08-01T08:49:57;102397.00;;;11.90
19644;BMP180;9970;-36.854;174.870;2022-08-01T08:52:33;102399.00;;;11.90
19644;BMP180;9970;-36.854;174.870;2022-08-01T08:55:06;102398.00;;;11.90
19644;BMP180;9970;-36.854;174.870;2022-08-01T08:57:41;102407.00;;;11.90
19644;BMP180;9970;-36.854;174.870;2022-08-01T09:00:16;102408.00;;;11.90
19644;BMP180;9970;-36.854;174.870;2022-08-01T09:02:49;102398.00;;;11.90
19644;BMP180;9970;-36.854;174.870;2022-08-01T09:05:24;102404.00;;;11.90
19644;BMP180;9970;-36.854;174.870;2022-08-01T09:08:01;102400.00;;;11.90
19644;BMP180;9970;-36.854;174.870;2022-08-01T09:10:35;102406.00;;;11.90
19644;BMP180;9970;-36.854;174.870;2022-08-01T09:13:12;102407.00;;;11.90
19644;BMP180;9970;-36.854;174.870;2022-08-01T09:15:47;102404.00;;;11.80
19644;BMP180;9970;-36.854;174.870;2022-08-01T09:18:39;102400.00;;;11.80
19644;BMP180;9970;-36.854;174.870;2022-08-01T09:21:18;102404.00;;;11.80
19644;BMP180;9970;-36.854;174.870;2022-08-01T09:23:54;102405.00;;;11.80
19644;BMP180;9970;-36.854;174.870;2022-08-01T09:26:34;102406.00;;;11.80
19644;BMP180;9970;-36.854;174.870;2022-08-01T09:29:16;102400.00;;;11.80
19644;BMP180;9970;-36.854;174.870;2022-08-01T09:31:44;102401.00;;;11.80
19644;BMP180;9970;-36.854;174.870;2022-08-01T09:34:29;102402.00;;;11.80
19644;BMP180;9970;-36.854;174.870;2022-08-01T09:36:59;102396.00;;;11.70
19644;BMP180;9970;-36.854;174.870;2022-08-01T09:39:35;102401.00;;;11.70
19644;BMP180;9970;-36.854;174.870;2022-08-01T09:42:21;102408.00;;;11.70
19644;BMP180;9970;-36.854;174.870;2022-08-01T09:44:55;102412.00;;;11.70
19644;BMP180;9970;-36.854;174.870;2022-08-01T09:47:38;102406.00;;;11.70
19644;BMP180;9970;-36.854;174.870;2022-08-01T09:50:12;102406.00;;;11.60
19644;BMP180;9970;-36.854;174.870;2022-08-01T09:52:52;102395.00;;;11.60
19644;BMP180;9970;-36.854;174.870;2022-08-01T09:55:21;102399.00;;;11.60
19644;BMP180;9970;-36.854;174.870;2022-08-01T09:57:57;102400.00;;;11.60
19644;BMP180;9970;-36.854;174.870;2022-08-01T10:00:31;102402.00;;;11.60
19644;BMP180;9970;-36.854;174.870;2022-08-01T10:03:25;102405.00;;;11.60
19644;BMP180;9970;-36.854;174.870;2022-08-01T10:06:00;102397.00;;;11.60
19644;BMP180;9970;-36.854;174.870;2022-08-01T10:08:45;102410.00;;;11.60
19644;BMP180;9970;-36.854;174.870;2022-08-01T10:11:10;102404.00;;;11.60
19644;BMP180;9970;-36.854;174.870;2022-08-01T10:13:44;102404.00;;;11.60
19644;BMP180;9970;-36.854;174.870;2022-08-01T10:16:20;102406.00;;;11.60
19644;BMP180;9970;-36.854;174.870;2022-08-01T10:18:54;102404.00;;;11.60
19644;BMP180;9970;-36.854;174.870;2022-08-01T10:21:31;102397.00;;;11.50
19644;BMP180;9970;-36.854;174.870;2022-08-01T10:24:11;102408.00;;;11.50
19644;BMP180;9970;-36.854;174.870;2022-08-01T10:26:55;102419.00;;;11.50
19644;BMP180;9970;-36.854;174.870;2022-08-01T10:29:28;102415.00;;;11.50
19644;BMP180;9970;-36.854;174.870;2022-08-01T10:32:06;102425.00;;;11.50
19644;BMP180;9970;-36.854;174.870;2022-08-01T10:34:40;102425.00;;;11.50
19644;BMP180;9970;-36.854;174.870;2022-08-01T10:37:13;102425.00;;;11.50
19644;BMP180;9970;-36.854;174.870;2022-08-01T10:39:47;102429.00;;;11.50
19644;BMP180;9970;-36.854;174.870;2022-08-01T10:42:22;102427.00;;;11.40
19644;BMP180;9970;-36.854;174.870;2022-08-01T10:44:57;102428.00;;;11.40
19644;BMP180;9970;-36.854;174.870;2022-08-01T10:47:34;102424.00;;;11.30
19644;BMP180;9970;-36.854;174.870;2022-08-01T10:50:15;102428.00;;;11.30
19644;BMP180;9970;-36.854;174.870;2022-08-01T10:53:08;102423.00;;;11.30
19644;BMP180;9970;-36.854;174.870;2022-08-01T10:55:59;102422.00;;;11.30
19644;BMP180;9970;-36.854;174.870;2022-08-01T10:58:37;102433.00;;;11.30
19644;BMP180;9970;-36.854;174.870;2022-08-01T11:01:26;102432.00;;;11.30
19644;BMP180;9970;-36.854;174.870;2022-08-01T11:04:16;102414.00;;;11.20
19644;BMP180;9970;-36.854;174.870;2022-08-01T11:06:53;102431.00;;;11.20
19644;BMP180;9970;-36.854;174.870;2022-08-01T11:09:38;102422.00;;;11.20
19644;BMP180;9970;-36.854;174.870;2022-08-01T11:12:17;102437.00;;;11.20
19644;BMP180;9970;-36.854;174.870;2022-08-01T11:17:43;102430.00;;;11.10
19644;BMP180;9970;-36.854;174.870;2022-08-01T11:20:24;102443.00;;;11.20
19644;BMP180;9970;-36.854;174.870;2022-08-01T11:28:17;102448.00;;;11.10
19644;BMP180;9970;-36.854;174.870;2022-08-01T11:33:49;102440.00;;;11.20
19644;BMP180;9970;-36.854;174.870;2022-08-01T11:36:27;102438.00;;;11.10
19644;BMP180;9970;-36.854;174.870;2022-08-01T11:41:40;102442.00;;;11.10
19644;BMP180;9970;-36.854;174.870;2022-08-01T11:44:15;102437.00;;;11.10
19644;BMP180;9970;-36.854;174.870;2022-08-01T11:46:52;102439.00;;;11.10
19644;BMP180;9970;-36.854;174.870;2022-08-01T11:49:48;102443.00;;;11.10
19644;BMP180;9970;-36.854;174.870;2022-08-01T11:52:30;102439.00;;;11.00
19644;BMP180;9970;-36.854;174.870;2022-08-01T11:55:08;102442.00;;;11.00
19644;BMP180;9970;-36.854;174.870;2022-08-01T11:57:42;102444.00;;;11.10
19644;BMP180;9970;-36.854;174.870;2022-08-01T12:00:18;102439.00;;;11.10
19644;BMP180;9970;-36.854;174.870;2022-08-01T12:03:00;102441.00;;;11.10
19644;BMP180;9970;-36.854;174.870;2022-08-01T12:05:34;102438.00;;;11.10
19644;BMP180;9970;-36.854;174.870;2022-08-01T12:08:09;102449.00;;;11.10
19644;BMP180;9970;-36.854;174.870;2022-08-01T12:10:48;102453.00;;;11.10
19644;BMP180;9970;-36.854;174.870;2022-08-01T12:13:22;102440.00;;;11.10
19644;BMP180;9970;-36.854;174.870;2022-08-01T12:15:56;102443.00;;;11.10
19644;BMP180;9970;-36.854;174.870;2022-08-01T12:18:37;102453.00;;;11.10
19644;BMP180;9970;-36.854;174.870;2022-08-01T12:21:04;102444.00;;;11.10
19644;BMP180;9970;-36.854;174.870;2022-08-01T12:23:37;102451.00;;;11.10
19644;BMP180;9970;-36.854;174.870;2022-08-01T12:26:10;102448.00;;;11.10
19644;BMP180;9970;-36.854;174.870;2022-08-01T12:28:44;102444.00;;;11.10
19644;BMP180;9970;-36.854;174.870;2022-08-01T12:31:30;102449.00;;;11.10
19644;BMP180;9970;-36.854;174.870;2022-08-01T12:33:54;102446.00;;;11.00
19644;BMP180;9970;-36.854;174.870;2022-08-01T12:36:31;102450.00;;;11.10
19644;BMP180;9970;-36.854;174.870;2022-08-01T12:39:04;102449.00;;;11.00
19644;BMP180;9970;-36.854;174.870;2022-08-01T12:41:37;102446.00;;;11.00
19644;BMP180;9970;-36.854;174.870;2022-08-01T12:44:16;102451.00;;;11.00
19644;BMP180;9970;-36.854;174.870;2022-08-01T12:46:49;102445.00;;;11.00
19644;BMP180;9970;-36.854;174.870;2022-08-01T12:49:22;102445.00;;;11.00
19644;BMP180;9970;-36.854;174.870;2022-08-01T12:51:56;102458.00;;;11.00
19644;BMP180;9970;-36.854;174.870;2022-08-01T12:54:29;102454.00;;;11.00
19644;BMP180;9970;-36.854;174.870;2022-08-01T12:57:02;102448.00;;;11.00
19644;BMP180;9970;-36.854;174.870;2022-08-01T12:59:35;102447.00;;;11.00
19644;BMP180;9970;-36.854;174.870;2022-08-01T13:02:12;102454.00;;;11.00
19644;BMP180;9970;-36.854;174.870;2022-08-01T13:04:51;102454.00;;;11.00
19644;BMP180;9970;-36.854;174.870;2022-08-01T13:10:27;102455.00;;;11.00
19644;BMP180;9970;-36.854;174.870;2022-08-01T13:12:59;102458.00;;;11.00
19644;BMP180;9970;-36.854;174.870;2022-08-01T13:15:34;102453.00;;;11.00
19644;BMP180;9970;-36.854;174.870;2022-08-01T13:18:33;102449.00;;;11.00
19644;BMP180;9970;-36.854;174.870;2022-08-01T13:21:12;102454.00;;;11.00
19644;BMP180;9970;-36.854;174.870;2022-08-01T13:24:06;102454.00;;;11.00
19644;BMP180;9970;-36.854;174.870;2022-08-01T13:26:48;102450.00;;;11.00
19644;BMP180;9970;-36.854;174.870;2022-08-01T13:29:28;102452.00;;;11.00
19644;BMP180;9970;-36.854;174.870;2022-08-01T13:31:57;102449.00;;;11.00
19644;BMP180;9970;-36.854;174.870;2022-08-01T13:34:36;102448.00;;;11.00
19644;BMP180;9970;-36.854;174.870;2022-08-01T13:37:11;102451.00;;;11.00
19644;BMP180;9970;-36.854;174.870;2022-08-01T13:39:47;102449.00;;;11.00
19644;BMP180;9970;-36.854;174.870;2022-08-01T13:42:24;102443.00;;;11.00
19644;BMP180;9970;-36.854;174.870;2022-08-01T13:44:57;102452.00;;;11.00
19644;BMP180;9970;-36.854;174.870;2022-08-01T13:47:34;102450.00;;;11.00
19644;BMP180;9970;-36.854;174.870;2022-08-01T13:50:08;102449.00;;;11.00
19644;BMP180;9970;-36.854;174.870;2022-08-01T13:52:45;102440.00;;;11.00
19644;BMP180;9970;-36.854;174.870;2022-08-01T13:55:18;102446.00;;;11.00
19644;BMP180;9970;-36.854;174.870;2022-08-01T13:57:50;102455.00;;;11.00
19644;BMP180;9970;-36.854;174.870;2022-08-01T14:00:23;102447.00;;;11.00
19644;BMP180;9970;-36.854;174.870;2022-08-01T14:02:56;102449.00;;;11.00
19644;BMP180;9970;-36.854;174.870;2022-08-01T14:05:33;102435.00;;;11.00
19644;BMP180;9970;-36.854;174.870;2022-08-01T14:08:06;102430.00;;;11.00
19644;BMP180;9970;-36.854;174.870;2022-08-01T14:10:39;102440.00;;;11.00
19644;BMP180;9970;-36.854;174.870;2022-08-01T14:13:16;102432.00;;;11.00
19644;BMP180;9970;-36.854;174.870;2022-08-01T14:15:51;102441.00;;;11.00
19644;BMP180;9970;-36.854;174.870;2022-08-01T14:18:25;102439.00;;;11.00
19644;BMP180;9970;-36.854;174.870;2022-08-01T14:20:58;102441.00;;;11.00
19644;BMP180;9970;-36.854;174.870;2022-08-01T14:23:32;102447.00;;;11.00
19644;BMP180;9970;-36.854;174.870;2022-08-01T14:26:05;102447.00;;;10.90
19644;BMP180;9970;-36.854;174.870;2022-08-01T14:28:39;102442.00;;;10.90
19644;BMP180;9970;-36.854;174.870;2022-08-01T14:31:14;102441.00;;;10.90
19644;BMP180;9970;-36.854;174.870;2022-08-01T14:33:47;102445.00;;;10.90
19644;BMP180;9970;-36.854;174.870;2022-08-01T14:36:20;102437.00;;;10.90
19644;BMP180;9970;-36.854;174.870;2022-08-01T14:38:55;102437.00;;;10.90
19644;BMP180;9970;-36.854;174.870;2022-08-01T14:41:29;102437.00;;;10.90
19644;BMP180;9970;-36.854;174.870;2022-08-01T14:44:02;102434.00;;;10.90